Terminal Aerodrome Forecast
Issued by NWS

Home | Current Version | Previous Version | Text Only | Print | Product List | Glossary On
Versions: 1 2 3 4 5 6 7 8 9 10 11 12 13 14 15 16 17 18 19 20 21
000
FTUS43 KGRR 060600 AAA
TAFJXN
TAF AMD
KJXN 060654Z 0607/0706 11005KT P6SM BKN005 BKN040 OVC070
     FM061000 09004KT 2SM BR OVC004
     FM061100 11005KT 1/4SM FG OVC001
     FM061400 12005KT 1 1/2SM BR OVC003
     FM061500 13004KT 4SM BR OVC007
     FM062000 16004KT 6SM HZ SCT120 BKN250=

USA.gov is the U.S. government's official web portal to all federal, state and local government web resources and services.